ESPA/LLA METAR and TAF weather

Enter ICAO airport designator
Station Type Date Time Source
ESPA METAR 2022/12/02 23:50 UTC NOAA

ESPA 022350Z AUTO 02003KT 9999 OVC005/// M02/M02 Q1042


Station Type Date Time Source
ESPA Decoded METAR 2022/12/02 23:50 UTC NOAA

Lulea / Kallax, Sweden (ESPA) 65-33N 022-08E 34M
Dec 02, 2022 - 06:50 PM EST / 2022.12.02 2350 UTC
Wind: from the NNE (020 degrees) at 3 MPH (3 KT):0
Visibility: greater than 7 mile(s):0
Sky conditions: overcast
Temperature: 28 F (-2 C)
Dew Point: 28 F (-2 C)
Relative Humidity: 100%
Pressure (altimeter): 30.77 in. Hg (1042 hPa)
ob: ESPA 022350Z AUTO 02003KT 9999 OVC005/// M02/M02 Q1042
cycle: 0

Station Type Date Time Source
ESPA TAF 2022/11/09 09:36 UTC NOAA

TAF TAF ESPA 090828Z 0909/0921 01006KT 9999 SCT007 BKN015
TEMPO 0909/0918 3000 SN SG BKN006
BECMG 0916/0919 2000 SN BKN005
RMK MIL

Example: see airport list